sensor_id;sensor_type;location;lat;lon;timestamp;P1;durP1;ratioP1;P2;durP2;ratioP2
6902;SDS011;20232;49.408;8.702;2023-09-12T04:01:48;15.00;;;7.47;;
6902;SDS011;20232;49.408;8.702;2023-09-12T04:04:14;11.93;;;6.93;;
6902;SDS011;20232;49.408;8.702;2023-09-12T04:06:40;13.23;;;7.93;;
6902;SDS011;20232;49.408;8.702;2023-09-12T04:09:05;12.37;;;7.73;;
6902;SDS011;20232;49.408;8.702;2023-09-12T04:11:32;9.53;;;7.03;;
6902;SDS011;20232;49.408;8.702;2023-09-12T04:13:58;13.63;;;7.50;;
6902;SDS011;20232;49.408;8.702;2023-09-12T04:16:23;12.47;;;7.30;;
6902;SDS011;20232;49.408;8.702;2023-09-12T04:18:49;11.17;;;7.13;;
6902;SDS011;20232;49.408;8.702;2023-09-12T04:21:15;14.77;;;7.60;;
6902;SDS011;20232;49.408;8.702;2023-09-12T04:23:40;13.00;;;7.40;;
6902;SDS011;20232;49.408;8.702;2023-09-12T04:26:06;15.30;;;7.47;;
6902;SDS011;20232;49.408;8.702;2023-09-12T04:28:31;16.13;;;7.33;;
6902;SDS011;20232;49.408;8.702;2023-09-12T04:31:03;10.53;;;7.23;;
6902;SDS011;20232;49.408;8.702;2023-09-12T04:33:29;15.60;;;7.30;;
6902;SDS011;20232;49.408;8.702;2023-09-12T04:35:56;12.40;;;7.17;;
6902;SDS011;20232;49.408;8.702;2023-09-12T04:38:23;15.20;;;7.30;;
6902;SDS011;20232;49.408;8.702;2023-09-12T04:40:55;14.17;;;7.37;;
6902;SDS011;20232;49.408;8.702;2023-09-12T04:43:22;13.80;;;6.87;;
6902;SDS011;20232;49.408;8.702;2023-09-12T04:45:48;11.43;;;6.93;;
6902;SDS011;20232;49.408;8.702;2023-09-12T04:48:13;14.37;;;7.00;;
6902;SDS011;20232;49.408;8.702;2023-09-12T04:50:42;13.17;;;7.30;;
6902;SDS011;20232;49.408;8.702;2023-09-12T04:53:08;12.67;;;7.30;;
6902;SDS011;20232;49.408;8.702;2023-09-12T04:55:35;13.70;;;7.43;;
6902;SDS011;20232;49.408;8.702;2023-09-12T04:58:01;17.60;;;7.93;;
6902;SDS011;20232;49.408;8.702;2023-09-12T05:00:26;13.47;;;7.17;;
6902;SDS011;20232;49.408;8.702;2023-09-12T05:02:52;12.37;;;8.27;;
6902;SDS011;20232;49.408;8.702;2023-09-12T05:05:17;12.73;;;7.57;;
6902;SDS011;20232;49.408;8.702;2023-09-12T05:07:42;13.20;;;7.10;;
6902;SDS011;20232;49.408;8.702;2023-09-12T05:10:08;10.33;;;7.27;;
6902;SDS011;20232;49.408;8.702;2023-09-12T05:12:33;15.50;;;7.50;;
6902;SDS011;20232;49.408;8.702;2023-09-12T05:14:59;10.93;;;7.60;;
6902;SDS011;20232;49.408;8.702;2023-09-12T05:17:24;12.67;;;7.27;;
6902;SDS011;20232;49.408;8.702;2023-09-12T05:19:50;16.73;;;7.77;;
6902;SDS011;20232;49.408;8.702;2023-09-12T05:22:15;18.10;;;7.67;;
6902;SDS011;20232;49.408;8.702;2023-09-12T05:24:41;13.97;;;7.10;;
6902;SDS011;20232;49.408;8.702;2023-09-12T05:27:06;9.87;;;7.43;;
6902;SDS011;20232;49.408;8.702;2023-09-12T05:29:32;12.40;;;7.83;;
6902;SDS011;20232;49.408;8.702;2023-09-12T05:31:57;14.00;;;7.93;;
6902;SDS011;20232;49.408;8.702;2023-09-12T05:34:23;12.80;;;7.97;;
6902;SDS011;20232;49.408;8.702;2023-09-12T05:36:48;15.70;;;8.30;;
6902;SDS011;20232;49.408;8.702;2023-09-12T05:39:14;9.97;;;7.67;;
6902;SDS011;20232;49.408;8.702;2023-09-12T05:41:39;13.03;;;7.57;;
6902;SDS011;20232;49.408;8.702;2023-09-12T05:44:05;14.53;;;7.87;;
6902;SDS011;20232;49.408;8.702;2023-09-12T05:46:30;22.43;;;9.50;;
6902;SDS011;20232;49.408;8.702;2023-09-12T05:48:56;18.03;;;7.43;;
6902;SDS011;20232;49.408;8.702;2023-09-12T05:51:21;15.50;;;7.87;;
6902;SDS011;20232;49.408;8.702;2023-09-12T05:53:47;11.83;;;7.63;;
6902;SDS011;20232;49.408;8.702;2023-09-12T05:56:12;11.47;;;6.63;;
6902;SDS011;20232;49.408;8.702;2023-09-12T05:58:37;13.13;;;7.27;;
6902;SDS011;20232;49.408;8.702;2023-09-12T06:01:07;14.17;;;7.30;;
6902;SDS011;20232;49.408;8.702;2023-09-12T06:03:33;13.53;;;7.60;;
6902;SDS011;20232;49.408;8.702;2023-09-12T06:05:58;14.07;;;8.07;;
6902;SDS011;20232;49.408;8.702;2023-09-12T06:08:24;13.57;;;8.03;;
6902;SDS011;20232;49.408;8.702;2023-09-12T06:10:49;12.93;;;7.60;;
6902;SDS011;20232;49.408;8.702;2023-09-12T06:13:18;12.90;;;7.27;;
6902;SDS011;20232;49.408;8.702;2023-09-12T06:15:44;14.10;;;7.90;;
6902;SDS011;20232;49.408;8.702;2023-09-12T06:18:10;13.20;;;7.33;;
6902;SDS011;20232;49.408;8.702;2023-09-12T06:20:35;13.37;;;7.40;;
6902;SDS011;20232;49.408;8.702;2023-09-12T06:23:01;12.43;;;7.33;;
6902;SDS011;20232;49.408;8.702;2023-09-12T06:25:26;16.20;;;8.20;;
6902;SDS011;20232;49.408;8.702;2023-09-12T06:27:54;10.87;;;7.10;;
6902;SDS011;20232;49.408;8.702;2023-09-12T06:30:19;12.00;;;7.57;;
6902;SDS011;20232;49.408;8.702;2023-09-12T06:32:44;13.97;;;7.07;;
6902;SDS011;20232;49.408;8.702;2023-09-12T06:35:10;13.50;;;7.33;;
6902;SDS011;20232;49.408;8.702;2023-09-12T06:37:36;14.83;;;7.43;;
6902;SDS011;20232;49.408;8.702;2023-09-12T06:40:05;14.07;;;6.97;;
6902;SDS011;20232;49.408;8.702;2023-09-12T06:42:31;12.90;;;6.60;;
6902;SDS011;20232;49.408;8.702;2023-09-12T06:44:57;12.70;;;7.20;;
6902;SDS011;20232;49.408;8.702;2023-09-12T06:47:22;13.37;;;7.10;;
6902;SDS011;20232;49.408;8.702;2023-09-12T06:49:47;13.90;;;6.73;;
6902;SDS011;20232;49.408;8.702;2023-09-12T06:52:13;15.47;;;7.40;;
6902;SDS011;20232;49.408;8.702;2023-09-12T06:54:38;11.50;;;6.97;;
6902;SDS011;20232;49.408;8.702;2023-09-12T06:57:04;13.50;;;6.67;;
6902;SDS011;20232;49.408;8.702;2023-09-12T06:59:29;11.37;;;6.83;;
6902;SDS011;20232;49.408;8.702;2023-09-12T07:01:55;13.57;;;6.97;;
6902;SDS011;20232;49.408;8.702;2023-09-12T07:04:20;12.73;;;6.17;;
6902;SDS011;20232;49.408;8.702;2023-09-12T07:06:46;14.17;;;6.33;;
6902;SDS011;20232;49.408;8.702;2023-09-12T07:09:12;12.00;;;5.90;;
6902;SDS011;20232;49.408;8.702;2023-09-12T07:11:40;11.57;;;5.70;;
6902;SDS011;20232;49.408;8.702;2023-09-12T07:14:09;9.70;;;5.90;;
6902;SDS011;20232;49.408;8.702;2023-09-12T07:16:35;10.13;;;5.80;;
6902;SDS011;20232;49.408;8.702;2023-09-12T07:19:01;10.30;;;6.00;;
6902;SDS011;20232;49.408;8.702;2023-09-12T07:21:26;11.40;;;5.70;;
6902;SDS011;20232;49.408;8.702;2023-09-12T07:23:52;11.13;;;5.80;;
6902;SDS011;20232;49.408;8.702;2023-09-12T07:26:17;13.13;;;6.10;;
6902;SDS011;20232;49.408;8.702;2023-09-12T07:28:44;13.80;;;6.53;;
6902;SDS011;20232;49.408;8.702;2023-09-12T07:31:09;15.50;;;8.03;;
6902;SDS011;20232;49.408;8.702;2023-09-12T07:33:34;14.30;;;6.07;;
6902;SDS011;20232;49.408;8.702;2023-09-12T07:36:00;9.77;;;6.00;;
6902;SDS011;20232;49.408;8.702;2023-09-12T07:38:28;10.53;;;5.40;;
6902;SDS011;20232;49.408;8.702;2023-09-12T07:40:54;16.30;;;6.00;;
6902;SDS011;20232;49.408;8.702;2023-09-12T07:43:20;9.87;;;6.30;;
6902;SDS011;20232;49.408;8.702;2023-09-12T07:45:46;10.00;;;5.73;;
6902;SDS011;20232;49.408;8.702;2023-09-12T07:48:11;12.30;;;6.30;;
6902;SDS011;20232;49.408;8.702;2023-09-12T07:50:37;14.73;;;6.07;;
6902;SDS011;20232;49.408;8.702;2023-09-12T07:53:04;9.03;;;5.20;;
6902;SDS011;20232;49.408;8.702;2023-09-12T07:55:30;12.43;;;6.00;;
6902;SDS011;20232;49.408;8.702;2023-09-12T07:57:59;11.97;;;6.03;;
6902;SDS011;20232;49.408;8.702;2023-09-12T08:00:25;12.40;;;6.20;;
6902;SDS011;20232;49.408;8.702;2023-09-12T08:02:50;9.80;;;5.13;;
6902;SDS011;20232;49.408;8.702;2023-09-12T08:05:16;11.10;;;5.77;;
6902;SDS011;20232;49.408;8.702;2023-09-12T08:07:41;9.27;;;5.23;;
6902;SDS011;20232;49.408;8.702;2023-09-12T08:10:07;9.97;;;5.50;;
6902;SDS011;20232;49.408;8.702;2023-09-12T08:12:32;11.20;;;5.37;;
6902;SDS011;20232;49.408;8.702;2023-09-12T08:14:58;12.17;;;5.83;;
6902;SDS011;20232;49.408;8.702;2023-09-12T08:17:25;10.67;;;5.20;;
6902;SDS011;20232;49.408;8.702;2023-09-12T08:19:51;12.37;;;6.20;;
6902;SDS011;20232;49.408;8.702;2023-09-12T08:22:16;12.70;;;5.70;;
6902;SDS011;20232;49.408;8.702;2023-09-12T08:24:41;12.87;;;5.37;;
6902;SDS011;20232;49.408;8.702;2023-09-12T08:27:07;9.90;;;5.30;;
6902;SDS011;20232;49.408;8.702;2023-09-12T08:29:34;10.57;;;5.53;;
6902;SDS011;20232;49.408;8.702;2023-09-12T08:32:00;10.90;;;5.87;;
6902;SDS011;20232;49.408;8.702;2023-09-12T08:34:25;11.27;;;5.43;;
6902;SDS011;20232;49.408;8.702;2023-09-12T08:36:51;12.63;;;6.13;;
6902;SDS011;20232;49.408;8.702;2023-09-12T08:39:18;10.80;;;6.13;;
6902;SDS011;20232;49.408;8.702;2023-09-12T08:41:51;13.70;;;5.60;;
6902;SDS011;20232;49.408;8.702;2023-09-12T08:44:18;12.20;;;5.70;;
6902;SDS011;20232;49.408;8.702;2023-09-12T08:46:45;9.77;;;5.57;;
6902;SDS011;20232;49.408;8.702;2023-09-12T08:49:10;9.60;;;5.47;;
6902;SDS011;20232;49.408;8.702;2023-09-12T08:51:40;9.97;;;5.43;;
6902;SDS011;20232;49.408;8.702;2023-09-12T08:54:05;8.43;;;5.90;;
6902;SDS011;20232;49.408;8.702;2023-09-12T08:56:32;9.63;;;5.50;;
6902;SDS011;20232;49.408;8.702;2023-09-12T08:58:58;8.50;;;5.47;;
6902;SDS011;20232;49.408;8.702;2023-09-12T09:01:25;12.80;;;5.70;;
6902;SDS011;20232;49.408;8.702;2023-09-12T09:03:53;12.33;;;5.23;;
6902;SDS011;20232;49.408;8.702;2023-09-12T09:06:20;11.33;;;5.43;;
6902;SDS011;20232;49.408;8.702;2023-09-12T09:08:47;10.30;;;6.00;;
6902;SDS011;20232;49.408;8.702;2023-09-12T09:11:13;10.93;;;5.80;;
6902;SDS011;20232;49.408;8.702;2023-09-12T09:13:39;14.47;;;6.93;;
6902;SDS011;20232;49.408;8.702;2023-09-12T09:19:01;14.40;;;6.70;;
6902;SDS011;20232;49.408;8.702;2023-09-12T09:21:32;13.33;;;6.43;;
6902;SDS011;20232;49.408;8.702;2023-09-12T09:24:01;9.27;;;6.00;;
6902;SDS011;20232;49.408;8.702;2023-09-12T09:26:45;9.33;;;5.80;;
6902;SDS011;20232;49.408;8.702;2023-09-12T09:29:15;10.50;;;6.07;;
6902;SDS011;20232;49.408;8.702;2023-09-12T09:31:41;8.87;;;5.87;;
6902;SDS011;20232;49.408;8.702;2023-09-12T09:34:13;12.93;;;6.50;;
6902;SDS011;20232;49.408;8.702;2023-09-12T09:36:43;11.37;;;6.10;;
6902;SDS011;20232;49.408;8.702;2023-09-12T09:39:11;11.07;;;6.43;;
6902;SDS011;20232;49.408;8.702;2023-09-12T09:41:37;11.73;;;6.13;;
6902;SDS011;20232;49.408;8.702;2023-09-12T09:44:04;17.33;;;6.67;;
6902;SDS011;20232;49.408;8.702;2023-09-12T09:46:33;10.37;;;5.63;;
6902;SDS011;20232;49.408;8.702;2023-09-12T09:48:58;13.20;;;6.63;;
6902;SDS011;20232;49.408;8.702;2023-09-12T09:51:25;9.53;;;5.97;;
6902;SDS011;20232;49.408;8.702;2023-09-12T09:53:54;7.33;;;6.07;;
6902;SDS011;20232;49.408;8.702;2023-09-12T09:56:23;11.90;;;6.57;;
6902;SDS011;20232;49.408;8.702;2023-09-12T09:58:55;8.20;;;6.50;;
6902;SDS011;20232;49.408;8.702;2023-09-12T10:01:22;6.80;;;5.97;;
6902;SDS011;20232;49.408;8.702;2023-09-12T10:03:50;9.00;;;6.47;;
6902;SDS011;20232;49.408;8.702;2023-09-12T10:06:16;11.77;;;6.47;;
6902;SDS011;20232;49.408;8.702;2023-09-12T10:08:43;9.60;;;6.33;;
6902;SDS011;20232;49.408;8.702;2023-09-12T10:11:11;8.37;;;5.90;;
6902;SDS011;20232;49.408;8.702;2023-09-12T10:13:38;13.90;;;6.87;;
6902;SDS011;20232;49.408;8.702;2023-09-12T10:16:07;11.00;;;6.33;;
6902;SDS011;20232;49.408;8.702;2023-09-12T10:18:33;9.63;;;6.33;;
6902;SDS011;20232;49.408;8.702;2023-09-12T10:21:10;10.97;;;6.40;;
6902;SDS011;20232;49.408;8.702;2023-09-12T10:23:41;14.77;;;7.07;;
6902;SDS011;20232;49.408;8.702;2023-09-12T10:26:10;21.17;;;7.47;;
6902;SDS011;20232;49.408;8.702;2023-09-12T10:28:37;11.07;;;6.20;;
6902;SDS011;20232;49.408;8.702;2023-09-12T10:31:08;8.63;;;6.53;;
6902;SDS011;20232;49.408;8.702;2023-09-12T10:33:34;8.70;;;6.37;;
6902;SDS011;20232;49.408;8.702;2023-09-12T10:36:01;7.30;;;6.30;;
6902;SDS011;20232;49.408;8.702;2023-09-12T10:38:28;9.67;;;6.70;;
6902;SDS011;20232;49.408;8.702;2023-09-12T10:40:55;9.07;;;6.80;;
6902;SDS011;20232;49.408;8.702;2023-09-12T10:43:21;8.93;;;6.63;;
6902;SDS011;20232;49.408;8.702;2023-09-12T10:45:46;8.83;;;6.40;;
6902;SDS011;20232;49.408;8.702;2023-09-12T10:48:13;10.70;;;7.10;;
6902;SDS011;20232;49.408;8.702;2023-09-12T10:50:39;10.63;;;7.50;;
6902;SDS011;20232;49.408;8.702;2023-09-12T10:53:11;12.67;;;6.70;;
6902;SDS011;20232;49.408;8.702;2023-09-12T10:55:37;10.30;;;6.70;;
6902;SDS011;20232;49.408;8.702;2023-09-12T10:58:03;7.73;;;6.87;;
6902;SDS011;20232;49.408;8.702;2023-09-12T11:00:29;9.63;;;6.90;;
6902;SDS011;20232;49.408;8.702;2023-09-12T11:02:58;10.03;;;6.80;;
6902;SDS011;20232;49.408;8.702;2023-09-12T11:07:57;10.10;;;7.10;;
6902;SDS011;20232;49.408;8.702;2023-09-12T11:10:23;8.17;;;7.07;;
6902;SDS011;20232;49.408;8.702;2023-09-12T11:12:52;8.50;;;6.60;;
6902;SDS011;20232;49.408;8.702;2023-09-12T11:15:20;10.43;;;6.90;;
6902;SDS011;20232;49.408;8.702;2023-09-12T11:17:49;9.10;;;6.83;;
6902;SDS011;20232;49.408;8.702;2023-09-12T11:20:25;8.60;;;6.70;;
6902;SDS011;20232;49.408;8.702;2023-09-12T11:22:50;10.83;;;7.70;;
6902;SDS011;20232;49.408;8.702;2023-09-12T11:32:43;10.03;;;7.43;;
6902;SDS011;20232;49.408;8.702;2023-09-12T11:35:11;9.07;;;6.80;;
6902;SDS011;20232;49.408;8.702;2023-09-12T11:37:36;6.80;;;6.10;;
6902;SDS011;20232;49.408;8.702;2023-09-12T11:40:24;8.07;;;7.00;;
6902;SDS011;20232;49.408;8.702;2023-09-12T11:42:49;11.43;;;7.57;;
6902;SDS011;20232;49.408;8.702;2023-09-12T11:45:15;8.93;;;7.00;;
6902;SDS011;20232;49.408;8.702;2023-09-12T11:47:43;8.03;;;6.33;;
6902;SDS011;20232;49.408;8.702;2023-09-12T11:50:25;10.27;;;6.90;;
6902;SDS011;20232;49.408;8.702;2023-09-12T11:52:57;7.97;;;6.30;;
6902;SDS011;20232;49.408;8.702;2023-09-12T11:55:26;7.63;;;6.83;;
6902;SDS011;20232;49.408;8.702;2023-09-12T11:57:51;9.40;;;6.90;;
6902;SDS011;20232;49.408;8.702;2023-09-12T12:00:17;8.73;;;6.20;;
6902;SDS011;20232;49.408;8.702;2023-09-12T12:02:45;8.53;;;6.23;;
6902;SDS011;20232;49.408;8.702;2023-09-12T12:05:10;7.40;;;6.30;;
6902;SDS011;20232;49.408;8.702;2023-09-12T12:07:36;9.97;;;6.30;;
6902;SDS011;20232;49.408;8.702;2023-09-12T12:10:01;9.03;;;6.10;;
6902;SDS011;20232;49.408;8.702;2023-09-12T12:12:29;9.87;;;6.10;;
6902;SDS011;20232;49.408;8.702;2023-09-12T12:14:54;9.90;;;6.10;;
6902;SDS011;20232;49.408;8.702;2023-09-12T12:17:19;7.30;;;6.17;;
6902;SDS011;20232;49.408;8.702;2023-09-12T12:19:45;9.27;;;6.30;;
6902;SDS011;20232;49.408;8.702;2023-09-12T12:22:11;8.93;;;6.00;;
6902;SDS011;20232;49.408;8.702;2023-09-12T12:24:41;8.37;;;5.80;;
6902;SDS011;20232;49.408;8.702;2023-09-12T12:27:10;7.73;;;5.87;;
6902;SDS011;20232;49.408;8.702;2023-09-12T12:29:36;9.40;;;6.10;;
6902;SDS011;20232;49.408;8.702;2023-09-12T12:32:04;7.90;;;5.67;;
6902;SDS011;20232;49.408;8.702;2023-09-12T12:34:30;7.13;;;5.77;;
6902;SDS011;20232;49.408;8.702;2023-09-12T12:36:56;7.20;;;5.87;;
6902;SDS011;20232;49.408;8.702;2023-09-12T12:39:21;9.23;;;5.97;;
6902;SDS011;20232;49.408;8.702;2023-09-12T12:41:47;8.23;;;5.80;;
6902;SDS011;20232;49.408;8.702;2023-09-12T12:44:16;8.57;;;5.50;;
6902;SDS011;20232;49.408;8.702;2023-09-12T12:46:52;8.50;;;5.77;;
6902;SDS011;20232;49.408;8.702;2023-09-12T12:49:18;6.30;;;5.70;;
6902;SDS011;20232;49.408;8.702;2023-09-12T12:51:44;14.03;;;5.70;;
6902;SDS011;20232;49.408;8.702;2023-09-12T12:54:11;6.53;;;5.57;;
6902;SDS011;20232;49.408;8.702;2023-09-12T12:56:36;8.00;;;5.43;;
6902;SDS011;20232;49.408;8.702;2023-09-12T12:59:03;8.50;;;5.90;;
6902;SDS011;20232;49.408;8.702;2023-09-12T13:01:33;10.43;;;5.47;;
6902;SDS011;20232;49.408;8.702;2023-09-12T13:03:58;9.73;;;5.80;;
6902;SDS011;20232;49.408;8.702;2023-09-12T13:06:24;10.17;;;6.07;;
6902;SDS011;20232;49.408;8.702;2023-09-12T13:08:51;12.70;;;6.20;;
6902;SDS011;20232;49.408;8.702;2023-09-12T13:11:16;8.33;;;5.57;;
6902;SDS011;20232;49.408;8.702;2023-09-12T13:13:42;7.87;;;5.43;;
6902;SDS011;20232;49.408;8.702;2023-09-12T13:16:08;7.97;;;5.53;;
6902;SDS011;20232;49.408;8.702;2023-09-12T13:18:35;6.77;;;5.17;;
6902;SDS011;20232;49.408;8.702;2023-09-12T13:21:01;6.70;;;5.63;;
6902;SDS011;20232;49.408;8.702;2023-09-12T13:23:27;6.70;;;5.23;;
6902;SDS011;20232;49.408;8.702;2023-09-12T13:25:54;7.27;;;5.20;;
6902;SDS011;20232;49.408;8.702;2023-09-12T13:28:19;6.73;;;5.57;;
6902;SDS011;20232;49.408;8.702;2023-09-12T13:30:45;7.93;;;5.13;;
6902;SDS011;20232;49.408;8.702;2023-09-12T13:33:11;6.87;;;5.27;;
6902;SDS011;20232;49.408;8.702;2023-09-12T13:35:37;7.60;;;5.17;;
6902;SDS011;20232;49.408;8.702;2023-09-12T13:38:03;9.10;;;5.80;;
6902;SDS011;20232;49.408;8.702;2023-09-12T13:40:36;8.37;;;5.50;;
6902;SDS011;20232;49.408;8.702;2023-09-12T13:43:03;6.13;;;5.50;;
6902;SDS011;20232;49.408;8.702;2023-09-12T13:45:28;9.40;;;5.10;;
6902;SDS011;20232;49.408;8.702;2023-09-12T13:47:54;10.03;;;5.60;;
6902;SDS011;20232;49.408;8.702;2023-09-12T13:50:19;12.03;;;5.80;;
6902;SDS011;20232;49.408;8.702;2023-09-12T13:52:44;7.67;;;5.33;;
6902;SDS011;20232;49.408;8.702;2023-09-12T13:55:10;9.43;;;5.40;;
6902;SDS011;20232;49.408;8.702;2023-09-12T13:57:39;7.13;;;5.87;;
6902;SDS011;20232;49.408;8.702;2023-09-12T14:00:04;6.83;;;5.37;;
6902;SDS011;20232;49.408;8.702;2023-09-12T14:02:34;7.50;;;5.37;;
6902;SDS011;20232;49.408;8.702;2023-09-12T14:04:59;8.07;;;5.43;;
6902;SDS011;20232;49.408;8.702;2023-09-12T14:07:25;7.43;;;5.30;;
6902;SDS011;20232;49.408;8.702;2023-09-12T14:09:51;6.10;;;5.50;;
6902;SDS011;20232;49.408;8.702;2023-09-12T14:12:19;6.37;;;5.20;;
6902;SDS011;20232;49.408;8.702;2023-09-12T14:14:45;5.73;;;5.10;;
6902;SDS011;20232;49.408;8.702;2023-09-12T14:17:11;7.13;;;5.03;;
6902;SDS011;20232;49.408;8.702;2023-09-12T14:19:36;7.57;;;4.97;;
6902;SDS011;20232;49.408;8.702;2023-09-12T14:22:02;6.20;;;5.07;;
6902;SDS011;20232;49.408;8.702;2023-09-12T14:24:28;8.33;;;5.40;;
6902;SDS011;20232;49.408;8.702;2023-09-12T14:26:53;10.67;;;5.03;;
6902;SDS011;20232;49.408;8.702;2023-09-12T14:29:19;7.10;;;5.23;;
6902;SDS011;20232;49.408;8.702;2023-09-12T14:31:44;10.27;;;5.27;;
6902;SDS011;20232;49.408;8.702;2023-09-12T14:34:15;8.23;;;5.57;;
6902;SDS011;20232;49.408;8.702;2023-09-12T14:36:43;7.50;;;5.50;;
6902;SDS011;20232;49.408;8.702;2023-09-12T14:39:11;7.27;;;5.60;;
6902;SDS011;20232;49.408;8.702;2023-09-12T14:41:36;12.70;;;6.60;;
6902;SDS011;20232;49.408;8.702;2023-09-12T14:44:02;5.47;;;4.93;;
6902;SDS011;20232;49.408;8.702;2023-09-12T14:46:27;7.27;;;5.13;;
6902;SDS011;20232;49.408;8.702;2023-09-12T14:48:53;10.40;;;5.80;;
6902;SDS011;20232;49.408;8.702;2023-09-12T14:51:18;9.20;;;5.70;;
6902;SDS011;20232;49.408;8.702;2023-09-12T14:53:44;6.80;;;4.97;;
6902;SDS011;20232;49.408;8.702;2023-09-12T14:56:11;5.90;;;4.83;;
6902;SDS011;20232;49.408;8.702;2023-09-12T14:58:36;6.83;;;5.43;;
6902;SDS011;20232;49.408;8.702;2023-09-12T15:01:02;11.40;;;6.10;;
6902;SDS011;20232;49.408;8.702;2023-09-12T15:03:28;5.60;;;5.10;;
6902;SDS011;20232;49.408;8.702;2023-09-12T15:05:54;8.87;;;5.30;;
6902;SDS011;20232;49.408;8.702;2023-09-12T15:08:19;6.70;;;4.87;;
6902;SDS011;20232;49.408;8.702;2023-09-12T15:10:44;7.83;;;5.10;;
6902;SDS011;20232;49.408;8.702;2023-09-12T15:13:10;6.33;;;5.10;;
6902;SDS011;20232;49.408;8.702;2023-09-12T15:15:36;5.33;;;4.83;;
6902;SDS011;20232;49.408;8.702;2023-09-12T15:18:02;6.67;;;5.23;;
6902;SDS011;20232;49.408;8.702;2023-09-12T15:20:28;7.43;;;5.30;;
6902;SDS011;20232;49.408;8.702;2023-09-12T15:22:53;8.00;;;5.40;;
6902;SDS011;20232;49.408;8.702;2023-09-12T15:25:19;9.27;;;5.73;;
6902;SDS011;20232;49.408;8.702;2023-09-12T15:27:44;7.40;;;5.33;;
6902;SDS011;20232;49.408;8.702;2023-09-12T15:30:09;6.87;;;5.70;;
6902;SDS011;20232;49.408;8.702;2023-09-12T15:32:35;8.57;;;5.43;;
6902;SDS011;20232;49.408;8.702;2023-09-12T15:35:01;6.90;;;5.37;;
6902;SDS011;20232;49.408;8.702;2023-09-12T15:37:26;7.93;;;5.40;;
6902;SDS011;20232;49.408;8.702;2023-09-12T15:39:51;8.30;;;6.00;;
6902;SDS011;20232;49.408;8.702;2023-09-12T15:42:17;6.40;;;5.50;;
6902;SDS011;20232;49.408;8.702;2023-09-12T15:44:43;8.60;;;5.53;;
6902;SDS011;20232;49.408;8.702;2023-09-12T15:47:08;6.70;;;6.10;;
6902;SDS011;20232;49.408;8.702;2023-09-12T15:49:33;6.77;;;5.40;;
6902;SDS011;20232;49.408;8.702;2023-09-12T15:51:59;7.90;;;5.93;;
6902;SDS011;20232;49.408;8.702;2023-09-12T15:54:24;7.63;;;5.43;;
6902;SDS011;20232;49.408;8.702;2023-09-12T15:56:50;9.80;;;6.17;;
6902;SDS011;20232;49.408;8.702;2023-09-12T15:59:15;10.30;;;6.20;;
6902;SDS011;20232;49.408;8.702;2023-09-12T16:01:40;6.50;;;5.70;;
6902;SDS011;20232;49.408;8.702;2023-09-12T16:04:06;6.80;;;5.77;;
6902;SDS011;20232;49.408;8.702;2023-09-12T16:06:32;7.53;;;6.23;;
6902;SDS011;20232;49.408;8.702;2023-09-12T16:08:57;7.33;;;6.30;;
6902;SDS011;20232;49.408;8.702;2023-09-12T16:11:23;9.93;;;6.50;;
6902;SDS011;20232;49.408;8.702;2023-09-12T16:13:48;8.40;;;6.03;;
6902;SDS011;20232;49.408;8.702;2023-09-12T16:16:14;10.37;;;6.70;;
6902;SDS011;20232;49.408;8.702;2023-09-12T16:18:40;7.37;;;6.33;;
6902;SDS011;20232;49.408;8.702;2023-09-12T16:21:06;10.33;;;6.27;;
6902;SDS011;20232;49.408;8.702;2023-09-12T16:23:31;8.83;;;6.33;;
6902;SDS011;20232;49.408;8.702;2023-09-12T16:25:57;10.17;;;6.60;;
6902;SDS011;20232;49.408;8.702;2023-09-12T16:28:24;7.20;;;6.27;;
6902;SDS011;20232;49.408;8.702;2023-09-12T16:30:50;8.47;;;6.20;;
6902;SDS011;20232;49.408;8.702;2023-09-12T16:33:15;6.70;;;6.10;;
6902;SDS011;20232;49.408;8.702;2023-09-12T16:35:41;8.40;;;6.70;;
6902;SDS011;20232;49.408;8.702;2023-09-12T16:38:07;8.27;;;6.20;;
6902;SDS011;20232;49.408;8.702;2023-09-12T16:40:32;7.90;;;6.67;;
6902;SDS011;20232;49.408;8.702;2023-09-12T16:42:58;7.43;;;6.33;;
6902;SDS011;20232;49.408;8.702;2023-09-12T16:45:23;7.07;;;5.83;;
6902;SDS011;20232;49.408;8.702;2023-09-12T16:47:48;9.13;;;6.87;;
6902;SDS011;20232;49.408;8.702;2023-09-12T16:50:14;8.03;;;6.33;;
6902;SDS011;20232;49.408;8.702;2023-09-12T16:52:40;8.53;;;6.77;;
6902;SDS011;20232;49.408;8.702;2023-09-12T16:55:06;7.40;;;6.63;;
6902;SDS011;20232;49.408;8.702;2023-09-12T16:57:31;10.50;;;6.77;;
6902;SDS011;20232;49.408;8.702;2023-09-12T16:59:57;8.97;;;7.03;;
6902;SDS011;20232;49.408;8.702;2023-09-12T17:02:22;11.03;;;7.40;;
6902;SDS011;20232;49.408;8.702;2023-09-12T17:04:48;14.77;;;7.00;;
6902;SDS011;20232;49.408;8.702;2023-09-12T17:07:13;8.03;;;7.13;;
6902;SDS011;20232;49.408;8.702;2023-09-12T17:09:39;10.83;;;7.33;;
6902;SDS011;20232;49.408;8.702;2023-09-12T17:12:05;11.20;;;7.53;;
6902;SDS011;20232;49.408;8.702;2023-09-12T17:14:32;7.83;;;6.87;;
6902;SDS011;20232;49.408;8.702;2023-09-12T17:16:57;8.10;;;6.97;;
6902;SDS011;20232;49.408;8.702;2023-09-12T17:19:23;8.57;;;7.77;;
6902;SDS011;20232;49.408;8.702;2023-09-12T17:21:48;8.37;;;7.37;;
6902;SDS011;20232;49.408;8.702;2023-09-12T17:24:14;7.27;;;6.57;;
6902;SDS011;20232;49.408;8.702;2023-09-12T17:26:39;10.87;;;6.67;;
6902;SDS011;20232;49.408;8.702;2023-09-12T17:29:05;7.33;;;6.37;;
6902;SDS011;20232;49.408;8.702;2023-09-12T17:31:30;7.90;;;6.10;;
6902;SDS011;20232;49.408;8.702;2023-09-12T17:33:56;10.30;;;7.10;;
6902;SDS011;20232;49.408;8.702;2023-09-12T17:36:21;10.10;;;7.07;;
6902;SDS011;20232;49.408;8.702;2023-09-12T17:38:46;11.03;;;7.77;;
6902;SDS011;20232;49.408;8.702;2023-09-12T17:41:14;9.10;;;6.80;;
6902;SDS011;20232;49.408;8.702;2023-09-12T17:43:40;9.53;;;7.00;;
6902;SDS011;20232;49.408;8.702;2023-09-12T17:46:06;9.33;;;7.07;;
6902;SDS011;20232;49.408;8.702;2023-09-12T17:48:31;7.77;;;6.90;;
6902;SDS011;20232;49.408;8.702;2023-09-12T17:50:57;8.37;;;6.83;;
6902;SDS011;20232;49.408;8.702;2023-09-12T17:53:22;8.77;;;7.10;;
6902;SDS011;20232;49.408;8.702;2023-09-12T17:55:49;7.97;;;7.17;;
6902;SDS011;20232;49.408;8.702;2023-09-12T17:58:15;12.00;;;7.40;;
6902;SDS011;20232;49.408;8.702;2023-09-12T18:00:40;8.80;;;6.47;;
6902;SDS011;20232;49.408;8.702;2023-09-12T18:03:06;7.87;;;6.70;;
6902;SDS011;20232;49.408;8.702;2023-09-12T18:05:31;11.33;;;6.50;;
6902;SDS011;20232;49.408;8.702;2023-09-12T18:07:57;8.00;;;6.77;;
6902;SDS011;20232;49.408;8.702;2023-09-12T18:10:23;7.43;;;6.60;;
6902;SDS011;20232;49.408;8.702;2023-09-12T18:12:51;9.47;;;6.83;;
6902;SDS011;20232;49.408;8.702;2023-09-12T18:15:17;11.60;;;7.60;;
6902;SDS011;20232;49.408;8.702;2023-09-12T18:17:42;9.57;;;7.20;;
6902;SDS011;20232;49.408;8.702;2023-09-12T18:20:09;11.17;;;7.83;;
6902;SDS011;20232;49.408;8.702;2023-09-12T18:22:35;9.87;;;7.40;;
6902;SDS011;20232;49.408;8.702;2023-09-12T18:25:00;9.37;;;7.80;;
6902;SDS011;20232;49.408;8.702;2023-09-12T18:27:26;10.00;;;7.10;;
6902;SDS011;20232;49.408;8.702;2023-09-12T18:29:52;8.40;;;7.20;;
6902;SDS011;20232;49.408;8.702;2023-09-12T18:32:17;10.43;;;7.57;;
6902;SDS011;20232;49.408;8.702;2023-09-12T18:34:43;10.07;;;7.33;;
6902;SDS011;20232;49.408;8.702;2023-09-12T18:37:08;8.37;;;7.30;;
6902;SDS011;20232;49.408;8.702;2023-09-12T18:39:34;9.10;;;6.80;;
6902;SDS011;20232;49.408;8.702;2023-09-12T18:42:00;7.80;;;7.00;;
6902;SDS011;20232;49.408;8.702;2023-09-12T18:44:25;7.73;;;6.60;;
6902;SDS011;20232;49.408;8.702;2023-09-12T18:46:51;9.90;;;6.37;;
6902;SDS011;20232;49.408;8.702;2023-09-12T18:49:16;8.67;;;6.63;;
6902;SDS011;20232;49.408;8.702;2023-09-12T18:51:42;8.30;;;7.10;;
6902;SDS011;20232;49.408;8.702;2023-09-12T18:54:13;7.00;;;6.37;;
6902;SDS011;20232;49.408;8.702;2023-09-12T18:56:42;7.60;;;6.57;;
6902;SDS011;20232;49.408;8.702;2023-09-12T18:59:07;8.47;;;6.73;;
6902;SDS011;20232;49.408;8.702;2023-09-12T19:01:33;9.60;;;7.27;;
6902;SDS011;20232;49.408;8.702;2023-09-12T19:04:02;7.83;;;6.73;;